Gelida, Spain
Current Conditions -  °F | °C
As of 1:30 PM on Thursday 18 Dec 2014 (Local Time) from LELL Reporting Station
Few Clouds Few Clouds  
Wind Chill: 61°   Ceiling: Unl
Heat Index: 61°   Visibility: 6mi
Dew Point: 48°   Wind: 12mph
Humidity: 63%   Direction: 260°W
Pressure: 30.21"   Gusts: NA
Location:  41.43°N, 1.87°E
Report Text: LELL 181230Z 26010KT 230V300 9999 FEW080 16/09 Q1023
Loading
Personal Weather Stations






























Interactive Weather Map New forecast layout! Learn more

10-Day Weather Forecast

Advertisements
Track Severe Weather on mobile